Latest Weather Observations for Mullion

IDN60801

Issued at 12:32 pm EST Wednesday 17 July 2019 (issued every 10 minutes, with the page automatically refreshed every 10 minutes)

About weather observations | Map of weather stations | Latest weather observations for NSW | Other Formats
Station Details ID: 250070 Name: MULLION (PCS) Lat: -35.11 Lon: 148.85 Height: 750.0 m
Data from the previous 72 hours. | See also: Recent months for locations in New South Wales
Date/Time
EST
Temp
°C
App
Temp
°C
Dew
Point
°C
Rel
Hum
%
Delta-T
°C
Wind Press
QNH
hPa
Press
MSL
hPa
Rain since
9am
mm
Dir  Spd
km/h
Gust
km/h
Spd
kts
Gust
kts
17/12:10pm 7.0 -3.0 2.1 71 2.1 WNW 44 50 24 27 - - 0.0
17/12:00pm 7.0 -3.5 1.6 68 2.3 WNW 46 50 25 27 - - 0.0
17/11:50am 7.0 -3.4 2.0 70 2.1 WNW 46 52 25 28 - - 0.0
17/11:40am 7.0 -2.5 2.0 70 2.1 WNW 41 48 22 26 - - 0.0
17/11:30am 7.2 -1.1 2.4 71 2.1 WNW 35 43 19 23 - - 0.0
17/11:20am 7.0 -2.9 2.6 73 1.9 WNW 44 50 24 27 - - 0.0
17/11:10am 7.3 -2.5 2.2 70 2.2 WNW 43 48 23 26 - - 0.0
17/11:00am 7.5 -1.2 2.2 69 2.3 WNW 37 46 20 25 - - 0.0
17/10:50am 7.2 -2.8 1.9 69 2.3 W 44 46 24 25 - - 0.0
17/10:40am 7.1 -2.4 2.0 70 2.2 W 41 52 22 28 - - 0.0
17/10:30am 7.0 -3.9 1.6 68 2.3 WNW 48 57 26 31 - - 0.0
17/10:20am 6.9 -1.9 1.6 69 2.2 W 37 44 20 24 - - 0.0
17/10:00am 6.8 -1.5 2.3 73 1.9 WNW 35 39 19 21 - - 0.0
17/09:50am 6.8 -1.5 2.4 73 1.9 WNW 35 41 19 22 - - 0.0
17/09:40am 6.9 0.3 2.3 72 2.0 W 26 33 14 18 - - 0.0
17/09:30am 6.9 0.8 2.5 73 1.9 WNW 24 33 13 18 - - 0.0
17/09:20am 6.7 0.2 2.6 75 1.8 WNW 26 33 14 18 - - 0.0
17/09:10am 6.6 -0.7 2.7 76 1.7 WNW 30 37 16 20 - - 0.0
17/09:00am 6.6 -1.0 2.9 77 1.6 WNW 32 41 17 22 - - 0.0
17/08:50am 6.6 -0.6 2.9 77 1.6 WNW 30 33 16 18 - - 0.0
17/08:40am 6.6 -1.2 3.1 78 1.5 WNW 33 44 18 24 - - 0.0
17/08:30am 6.6 0.6 3.1 78 1.5 WNW 24 28 13 15 - - 0.0
17/08:20am 6.6 0.1 2.6 75 1.7 WNW 26 33 14 18 - - 0.0
17/08:10am 6.7 0.2 2.6 75 1.8 W 26 32 14 17 - - 0.0
17/08:00am 6.6 0.0 2.3 74 1.9 W 26 41 14 22 - - 0.0
17/07:50am 6.7 -0.2 2.7 75 1.7 W 28 33 15 18 - - 0.0
17/07:40am 6.7 -0.6 2.4 74 1.9 W 30 39 16 21 - - 0.0
17/07:30am 6.6 0.8 2.1 73 1.9 W 22 37 12 20 - - 0.0
17/07:20am 6.7 0.6 2.6 75 1.8 W 24 37 13 20 - - 0.0
17/07:10am 6.8 -0.5 2.6 74 1.8 W 30 43 16 23 - - 0.0
17/07:00am 6.8 1.0 2.5 74 1.9 W 22 37 12 20 - - 0.0
17/06:50am 6.6 1.5 2.8 77 1.7 W 19 28 10 15 - - 0.0
17/06:40am 6.7 0.2 2.9 77 1.7 W 26 46 14 25 - - 0.0
17/06:30am 6.7 1.5 2.7 75 1.7 W 19 35 10 19 - - 0.0
17/06:20am 6.7 0.2 2.6 75 1.8 W 26 37 14 20 - - 0.0
17/06:10am 6.6 1.2 2.4 74 1.8 W 20 30 11 16 - - 0.0
17/06:00am 6.6 1.8 2.6 75 1.7 W 17 26 9 14 - - 0.0
17/05:50am 6.7 -0.2 2.4 74 1.9 W 28 41 15 22 - - 0.0
17/05:40am 6.5 1.1 2.6 76 1.7 W 20 32 11 17 - - 0.0
17/05:30am 6.7 -1.0 2.1 72 2.0 W 32 41 17 22 - - 0.0
17/05:20am 6.8 -3.1 1.9 71 2.1 W 43 52 23 28 - - 0.0
17/05:10am 6.7 -0.6 2.2 73 1.9 WNW 30 46 16 25 - - 0.0
17/05:00am 6.5 0.6 1.8 72 2.0 WNW 22 37 12 20 - - 0.0
17/04:50am 6.6 -1.4 1.7 71 2.1 WNW 33 48 18 26 - - 0.0
17/04:40am 6.9 -0.1 1.9 70 2.1 WNW 28 39 15 21 - - 0.0
17/04:30am 6.7 1.4 2.0 72 2.0 WNW 19 30 10 16 - - 0.0
17/04:20am 6.8 2.3 2.4 73 1.9 NW 15 22 8 12 - - 0.0
17/04:10am 6.6 1.4 2.4 74 1.8 WNW 19 22 10 12 - - 0.0
17/04:00am 6.7 1.0 2.6 75 1.8 NW 22 30 12 16 - - 0.0
17/03:50am 6.7 1.0 3.1 78 1.6 NW 22 28 12 15 - - 0.0
17/03:40am 6.9 0.4 2.7 74 1.8 WNW 26 41 14 22 - - 0.0
17/03:30am 6.8 1.4 2.5 74 1.9 WNW 20 26 11 14 - - 0.0
17/03:20am 6.8 1.4 2.7 75 1.8 WNW 20 24 11 13 - - 0.0
17/03:10am 7.0 -0.3 2.5 73 2.0 WNW 30 37 16 20 - - 0.0
17/03:00am 6.9 -0.7 2.7 74 1.8 WNW 32 41 17 22 - - 0.0
17/02:50am 6.9 -0.3 2.8 75 1.8 WNW 30 39 16 21 - - 0.0
17/02:40am 7.0 0.1 2.6 73 1.9 WNW 28 39 15 21 - - 0.0
17/02:30am 7.0 0.5 2.7 74 1.9 WNW 26 33 14 18 - - 0.0
17/02:20am 6.9 0.9 3.4 78 1.6 WNW 24 28 13 15 - - 0.0
17/02:10am 6.8 0.8 3.4 79 1.5 WNW 24 30 13 16 - - 0.0
17/02:00am 6.8 0.5 3.6 80 1.4 WNW 26 32 14 17 - - 0.0
17/01:50am 6.7 0.4 3.6 80 1.4 NW 26 28 14 15 - - 0.0
17/01:40am 6.8 -0.3 3.6 80 1.4 NW 30 33 16 18 - - 0.0
17/01:30am 6.8 -0.8 3.1 77 1.6 WNW 32 46 17 25 - - 0.0
17/01:20am 6.9 0.1 3.2 77 1.6 WNW 28 32 15 17 - - 0.0
17/01:10am 6.9 -1.6 3.3 78 1.6 WNW 37 43 20 23 - - 0.0
17/01:00am 6.9 -1.9 3.5 79 1.5 WNW 39 43 21 23 - - 0.0
17/12:50am 6.9 -0.5 3.9 81 1.3 WNW 32 37 17 20 - - 0.0
17/12:40am 6.9 0.2 3.9 81 1.3 WNW 28 33 15 18 - - 0.0
17/12:30am 6.9 1.5 4.5 85 1.1 NW 22 26 12 14 - - 0.0
17/12:20am 6.9 1.5 4.5 85 1.1 NW 22 24 12 13 - - 0.0
17/12:10am 6.8 1.4 4.6 86 1.0 NW 22 26 12 14 - - 0.0
17/12:00am 6.8 2.0 4.7 86 1.0 NW 19 24 10 13 - - 0.0
 
Date/Time
EST
Temp
°C
App
Temp
°C
Dew
Point
°C
Rel
Hum
%
Delta-T
°C
Wind Press
QNH
hPa
Press
MSL
hPa
Rain since
9am
mm
Dir  Spd
km/h
Gust
km/h
Spd
kts
Gust
kts
16/11:50pm 6.8 2.0 4.7 86 1.0 NW 19 20 10 11 - - 0.0
16/11:40pm 6.8 2.4 4.9 88 0.9 NW 17 22 9 12 - - 0.0
16/11:30pm 6.8 2.1 5.0 88 0.8 NW 19 20 10 11 - - 0.0
16/11:20pm 6.8 2.1 5.0 88 0.8 NW 19 22 10 12 - - 0.0
16/11:10pm 6.9 2.0 5.0 88 0.9 NW 20 24 11 13 - - 0.0
16/11:00pm 6.8 2.5 5.1 89 0.8 NW 17 19 9 10 - - 0.0
16/10:50pm 6.9 2.2 5.1 88 0.8 NW 19 24 10 13 - - 0.0
16/10:40pm 6.9 2.0 5.1 88 0.8 WNW 20 24 11 13 - - 0.0
16/10:30pm 6.9 1.6 5.1 88 0.8 WNW 22 26 12 14 - - 0.0
16/10:20pm 7.0 1.7 5.1 88 0.9 WNW 22 30 12 16 - - 0.0
16/10:10pm 7.0 2.1 5.3 89 0.8 WNW 20 24 11 13 - - 0.0
16/10:00pm 7.0 2.3 5.2 88 0.8 WNW 19 22 10 12 - - 0.0
16/09:50pm 7.1 2.8 5.2 88 0.9 WNW 17 20 9 11 - - 0.0
16/09:40pm 7.1 2.8 5.2 88 0.9 WNW 17 20 9 11 - - 0.0
16/09:30pm 7.1 2.2 5.2 88 0.9 WNW 20 26 11 14 - - 0.0
16/09:20pm 7.2 2.3 5.2 87 0.9 WNW 20 26 11 14 - - 0.0
16/09:10pm 7.3 2.6 5.2 86 1.0 WNW 19 20 10 11 - - 0.0
16/09:00pm 7.4 2.5 5.1 85 1.1 WNW 20 24 11 13 - - 0.0
16/08:50pm 7.3 3.7 4.9 85 1.1 WNW 13 17 7 9 - - 0.0
16/08:40pm 7.4 3.8 4.9 84 1.2 NW 13 20 7 11 - - 0.0
16/08:30pm 7.5 3.8 4.4 81 1.4 WNW 13 20 7 11 - - 0.0
16/08:20pm 7.5 3.0 4.0 78 1.6 W 17 20 9 11 - - 0.0
16/08:10pm 7.4 3.0 4.8 83 1.2 WNW 17 19 9 10 - - 0.0
16/08:00pm 7.5 3.5 4.9 83 1.2 NW 15 22 8 12 - - 0.0
16/07:50pm 7.4 3.3 4.4 81 1.4 W 15 26 8 14 - - 0.0
16/07:40pm 7.1 2.3 4.9 86 1.0 WNW 19 22 10 12 - - 0.0
16/07:30pm 7.0 2.1 5.1 88 0.9 WNW 20 24 11 13 - - 0.0
16/07:20pm 7.1 0.7 5.1 87 0.9 WNW 28 33 15 18 - - 0.0
16/07:10pm 7.1 0.7 5.0 86 1.0 WNW 28 33 15 18 - - 0.0
16/07:00pm 7.1 0.7 5.0 86 1.0 WNW 28 32 15 17 - - 0.0
16/06:50pm 7.2 1.1 4.8 85 1.1 WNW 26 30 14 16 - - 0.0
16/06:40pm 7.2 1.1 4.8 85 1.1 WNW 26 28 14 15 - - 0.0
16/06:30pm 7.4 1.3 4.6 82 1.3 WNW 26 30 14 16 - - 0.0
16/06:20pm 7.4 0.1 4.6 82 1.3 WNW 32 35 17 19 - - 0.0
16/06:10pm 7.5 -0.8 4.3 80 1.5 W 37 44 20 24 - - 0.0
16/06:00pm 7.5 -0.8 4.2 79 1.5 WNW 37 46 20 25 - - 0.0
16/05:50pm 7.4 0.1 4.4 81 1.4 WNW 32 37 17 20 - - 0.0
16/05:40pm 7.4 -1.6 4.4 81 1.4 WNW 41 44 22 24 - - 0.0
16/05:30pm 7.5 0.5 4.3 80 1.5 WNW 30 32 16 17 - - 0.0
16/05:20pm 7.5 2.1 4.3 80 1.5 WNW 22 28 12 15 - - 0.0
16/05:10pm 7.5 1.7 4.3 80 1.5 W 24 30 13 16 - - 0.0
16/05:00pm 7.5 2.0 4.2 79 1.5 W 22 28 12 15 - - 0.0
16/04:50pm 7.6 1.4 4.1 78 1.6 WNW 26 30 14 16 - - 0.0
16/04:40pm 7.6 1.7 4.1 78 1.6 WNW 24 26 13 14 - - 0.0
16/04:30pm 7.6 1.0 4.1 78 1.6 W 28 35 15 19 - - 0.0
16/04:20pm 7.8 2.3 3.9 76 1.8 WNW 22 35 12 19 - - 0.0
16/04:10pm 7.8 1.9 3.8 76 1.8 WNW 24 32 13 17 - - 0.0
16/04:00pm 7.8 2.3 3.9 76 1.8 WNW 22 28 12 15 - - 0.0
16/03:50pm 7.9 1.6 3.7 75 1.9 WNW 26 35 14 19 - - 0.0
16/03:40pm 7.9 0.9 3.9 76 1.8 WNW 30 32 16 17 - - 0.0
16/03:30pm 7.9 0.4 3.7 75 1.9 WNW 32 35 17 19 - - 0.0
16/03:20pm 8.0 0.6 4.0 76 1.8 WNW 32 44 17 24 - - 0.0
16/03:10pm 8.1 1.4 3.8 74 1.9 WNW 28 37 15 20 - - 0.0
16/03:00pm 8.1 0.5 3.8 74 1.9 WNW 33 41 18 22 - - 0.0
16/02:50pm 8.2 1.8 3.2 71 2.2 WNW 26 33 14 18 - - 0.0
16/02:40pm 8.1 1.0 3.6 73 2.0 WNW 30 37 16 20 - - 0.0
16/02:30pm 8.2 -0.2 3.5 72 2.1 WNW 37 43 20 23 - - 0.0
16/02:20pm 8.1 0.6 3.7 74 2.0 WNW 32 41 17 22 - - 0.0
16/02:10pm 8.2 1.9 3.6 73 2.1 WNW 26 30 14 16 - - 0.0
16/02:00pm 8.1 2.1 3.5 73 2.1 WNW 24 28 13 15 - - 0.0
16/01:50pm 8.0 1.3 3.6 74 2.0 NW 28 32 15 17 - - 0.0
16/01:40pm 8.0 0.5 3.7 74 1.9 NW 32 41 17 22 - - 0.0
16/01:30pm 8.0 0.9 3.5 73 2.0 NW 30 41 16 22 - - 0.0
16/01:20pm 7.9 0.4 3.6 74 1.9 NW 32 35 17 19 - - 0.0
16/01:10pm 7.8 0.7 3.6 75 1.9 NW 30 35 16 19 - - 0.0
16/01:00pm 7.9 0.8 3.5 74 2.0 NW 30 33 16 18 - - 0.0
16/12:50pm 7.9 0.4 3.2 72 2.1 WNW 32 44 17 24 - - 0.0
16/12:40pm 8.0 2.0 3.1 71 2.2 WNW 24 33 13 18 - - 0.0
16/12:30pm 7.9 1.0 2.8 70 2.2 NW 28 44 15 24 - - 0.0
16/12:20pm 7.8 1.1 3.5 74 1.9 WNW 28 32 15 17 - - 0.0
16/12:10pm 7.8 1.4 3.4 74 2.0 WNW 26 35 14 19 - - 0.0
16/12:00pm 7.6 0.8 3.1 73 2.0 WNW 28 32 15 17 - - 0.0
16/11:50am 7.6 1.3 3.8 77 1.7 WNW 26 33 14 18 - - 0.0
16/11:40am 7.7 0.2 3.6 75 1.8 NW 32 41 17 22 - - 0.0
16/11:30am 7.8 0.3 3.2 73 2.0 NW 32 37 17 20 - - 0.0
16/11:20am 7.8 0.2 3.1 72 2.1 WNW 32 37 17 20 - - 0.0
16/11:10am 7.6 0.1 3.4 75 1.9 NW 32 39 17 21 - - 0.0
16/11:00am 7.7 0.0 3.6 75 1.8 NW 33 37 18 20 - - 0.0
16/10:50am 7.8 1.1 3.5 74 1.9 NW 28 33 15 18 - - 0.0
16/10:40am 7.9 1.2 3.4 73 2.0 WNW 28 33 15 18 - - 0.0
16/10:30am 8.0 1.7 3.6 74 2.0 WNW 26 32 14 17 - - 0.0
16/10:20am 7.9 1.6 3.7 75 1.9 NW 26 32 14 17 - - 0.0
16/10:10am 8.0 1.5 2.8 70 2.3 WNW 26 30 14 16 - - 0.0
16/10:00am 8.0 2.4 3.3 72 2.1 NW 22 28 12 15 - - 0.0
16/09:50am 7.6 2.0 3.5 75 1.8 NW 22 28 12 15 - - 0.0
16/09:40am 7.6 2.7 3.9 77 1.7 NW 19 26 10 14 - - 0.0
16/09:30am 7.8 2.3 3.9 76 1.8 NW 22 26 12 14 - - 0.0
16/09:20am 7.8 2.3 4.0 77 1.7 WNW 22 26 12 14 - - 0.0
16/09:10am 8.0 1.7 3.9 75 1.9 WNW 26 35 14 19 - - 0.0
16/09:00am 8.0 1.7 3.5 73 2.0 NW 26 32 14 17 - - 0.0
16/08:50am 7.9 1.2 3.9 76 1.8 NW 28 35 15 19 - - 0.0
16/08:40am 7.8 2.2 3.7 75 1.8 WNW 22 28 12 15 - - 0.0
16/08:30am 7.5 1.1 3.3 75 1.9 WNW 26 33 14 18 - - 0.0
16/08:20am 7.4 0.6 3.3 75 1.8 WNW 28 33 15 18 - - 0.0
16/08:10am 7.1 -0.1 2.9 74 1.8 WNW 30 35 16 19 - - 0.0
16/08:00am 7.0 -0.7 3.2 77 1.7 W 33 39 18 21 - - 0.0
16/07:50am 6.9 -1.2 3.0 76 1.7 W 35 43 19 23 - - 0.0
16/07:40am 7.0 -1.9 3.0 76 1.8 W 39 44 21 24 - - 0.0
16/07:30am 6.8 -3.1 2.6 74 1.8 W 44 50 24 27 - - 0.0
16/07:20am 6.9 -3.8 2.8 75 1.8 W 48 52 26 28 - - 0.0
16/07:10am 6.8 -3.5 2.6 74 1.8 W 46 56 25 30 - - 0.0
16/07:00am 7.0 -4.4 2.6 73 1.9 W 52 56 28 30 - - 0.0
16/06:50am 6.9 -5.2 -2.0 53 3.5 W 52 56 28 30 - - 0.0
16/06:40am 6.9 -4.6 2.4 73 1.9 WSW 52 57 28 31 - - 0.0
16/06:30am 7.0 -5.2 2.4 72 2.0 WSW 56 61 30 33 - - 0.0
16/06:20am 7.2 -6.4 2.4 71 2.1 WSW 63 70 34 38 - - 0.0
16/06:10am 7.3 -8.1 2.0 69 2.3 WSW 72 76 39 41 - - 0.0
16/06:00am 7.0 -7.9 2.6 73 1.9 WSW 70 82 38 44 - - 0.0
16/05:50am 7.1 -7.8 2.3 71 2.1 WSW 70 74 38 40 - - 0.0
16/05:40am 6.8 -7.5 2.4 73 1.9 WSW 67 70 36 38 - - 0.0
16/05:30am 6.8 -7.9 2.6 74 1.8 WSW 69 72 37 39 - - 0.0
16/05:20am 6.9 -8.0 2.3 72 2.0 WSW 70 74 38 40 - - 0.0
16/05:10am 6.9 -7.8 2.4 73 1.9 WSW 69 76 37 41 - - 0.0
16/05:00am 6.8 -7.9 2.5 74 1.9 WSW 69 74 37 40 - - 0.0
16/04:50am 6.8 -6.7 6.8 100 0.0 WSW 67 72 36 39 - - 0.0
16/04:40am 6.9 -7.8 2.4 73 1.9 WSW 69 72 37 39 - - 0.0
16/04:30am 7.0 -7.9 2.6 73 1.9 WSW 70 76 38 41 - - 0.0
16/04:20am 7.1 -8.9 0.6 63 2.7 WSW 74 83 40 45 - - 0.0
16/04:10am 7.1 -8.6 2.3 71 2.1 WSW 74 83 40 45 - - 0.0
16/04:00am 7.0 -8.3 2.1 71 2.1 WSW 72 80 39 43 - - 0.0
16/03:50am 7.0 -9.4 2.3 72 2.0 WSW 78 85 42 46 - - 0.0
16/03:40am 6.9 -10.7 -10.9 27 5.6 WSW 76 82 41 44 - - 0.0
16/03:30am 7.1 -9.7 2.3 71 2.1 WSW 80 83 43 45 - - 0.0
16/03:20am 7.0 -9.9 2.1 71 2.1 WSW 80 85 43 46 - - 0.0
16/03:10am 7.0 -9.5 2.2 71 2.1 WSW 78 87 42 47 - - 0.0
16/03:00am 7.1 -8.8 7.1 100 0.0 WSW 80 87 43 47 - - 0.0
16/02:50am 7.2 -10.6 2.1 70 2.2 WSW 85 93 46 50 - - 0.0
16/02:40am 7.2 -10.0 2.1 70 2.2 WSW 82 89 44 48 - - 0.0
16/02:30am - - - - - WSW 76 83 41 45 - - -
16/02:20am - - - - - WSW 63 74 34 40 - - -
16/02:10am 7.0 -6.3 1.8 69 2.2 WSW 61 69 33 37 - - 0.0
16/02:00am 6.9 -6.8 1.9 70 2.1 WSW 63 72 34 39 - - 0.0
16/01:50am 7.0 -8.0 1.9 70 2.2 WSW 70 78 38 42 - - 0.0
16/01:40am 7.0 -9.5 2.0 70 2.1 WSW 78 85 42 46 - - 0.0
16/01:30am 7.0 -9.1 2.0 70 2.1 WSW 76 82 41 44 - - 0.0
16/01:20am 6.9 -6.8 1.9 70 2.1 WSW 63 70 34 38 - - 0.0
16/01:10am 7.0 -6.3 1.9 70 2.2 WSW 61 65 33 35 - - 0.0
16/01:00am 6.8 -6.1 2.1 72 2.0 WSW 59 65 32 35 - - 0.0
16/12:50am 6.7 -5.6 2.1 72 2.0 WSW 56 61 30 33 - - 0.0
16/12:40am 6.5 -5.4 2.4 75 1.8 WSW 54 59 29 32 - - 0.0
16/12:30am 6.4 -5.0 2.6 77 1.6 WSW 52 56 28 30 - - 0.0
16/12:20am 6.5 -3.3 2.4 75 1.8 WSW 43 52 23 28 - - 0.0
16/12:00am 6.6 -4.1 2.4 74 1.8 WSW 48 54 26 29 - - 0.0
 
Date/Time
EST
Temp
°C
App
Temp
°C
Dew
Point
°C
Rel
Hum
%
Delta-T
°C
Wind Press
QNH
hPa
Press
MSL
hPa
Rain since
9am
mm
Dir  Spd
km/h
Gust
km/h
Spd
kts
Gust
kts
15/11:50pm 6.6 -2.8 2.3 74 1.9 WSW 41 54 22 29 - - 0.0
15/11:40pm 6.6 -5.6 2.4 74 1.8 WSW 56 65 30 35 - - 0.0
15/11:30pm 6.6 -5.3 2.3 74 1.9 WSW 54 61 29 33 - - 0.0
15/11:20pm 6.7 -5.2 2.4 74 1.9 WSW 54 67 29 36 - - 0.0
15/11:10pm 6.5 -6.3 2.3 74 1.8 WSW 59 72 32 39 - - 0.0
15/11:00pm 6.5 -5.6 -8.8 32 5.0 WSW 48 67 26 36 - - 0.0
15/10:50pm 6.1 -3.3 2.3 76 1.6 WSW 41 46 22 25 - - 0.0
15/10:40pm 6.3 -5.5 2.5 77 1.6 WSW 54 57 29 31 - - 0.0
15/10:30pm 6.2 -6.2 2.7 78 1.5 WSW 57 65 31 35 - - 0.0
15/10:20pm 6.2 -3.8 2.4 76 1.6 WSW 44 56 24 30 - - 0.0
15/10:10pm 6.2 -2.5 2.2 75 1.7 WSW 37 44 20 24 - - 0.0
15/10:00pm 6.3 -2.4 2.2 75 1.8 W 37 44 20 24 - - 0.0
15/09:50pm 6.2 -3.2 2.2 75 1.7 W 41 52 22 28 - - 0.0
15/09:40pm 6.2 -3.3 2.0 74 1.8 WSW 41 48 22 26 - - 0.0
15/09:30pm 6.2 -3.6 2.1 75 1.7 WSW 43 48 23 26 - - 0.0
15/09:20pm 6.2 -2.1 2.3 76 1.7 W 35 52 19 28 - - 0.0
15/09:10pm 6.1 -1.6 2.1 75 1.7 W 32 37 17 20 - - 0.0
15/09:00pm 6.2 -1.7 2.1 75 1.7 WSW 33 46 18 25 - - 0.0
15/08:50pm 6.2 -2.5 2.2 75 1.7 WSW 37 44 20 24 - - 0.0
15/08:40pm 6.4 -3.4 2.0 73 1.9 W 43 52 23 28 - - 0.0
15/08:30pm 6.4 -3.5 1.9 73 1.9 W 43 56 23 30 - - 0.0
15/08:20pm 6.3 -2.1 1.8 73 1.9 W 35 43 19 23 - - 0.0
15/08:10pm 6.3 -2.4 2.0 74 1.8 W 37 48 20 26 - - 0.0
15/08:00pm 6.3 -3.2 2.0 74 1.8 W 41 46 22 25 - - 0.0
15/07:50pm 6.3 -3.2 2.0 74 1.8 W 41 48 22 26 - - 0.0
15/07:40pm 6.4 -5.1 -11.0 27 5.4 W 44 52 24 28 - - 0.0
15/07:30pm 6.3 -0.7 2.0 74 1.8 W 28 35 15 19 - - 0.0
15/07:20pm 6.2 -1.5 2.1 75 1.7 WNW 32 37 17 20 - - 0.0
15/07:10pm 6.3 -1.4 2.2 75 1.8 WNW 32 39 17 21 - - 0.0
15/07:00pm 6.2 -0.7 2.5 77 1.6 WNW 28 35 15 19 - - 0.0
15/06:50pm 6.2 -1.1 2.4 76 1.6 WNW 30 35 16 19 - - 0.0
15/06:40pm 6.2 -1.1 2.4 76 1.6 WNW 30 37 16 20 - - 0.0
15/06:30pm 6.2 -1.5 2.4 76 1.6 WNW 32 35 17 19 - - 0.0
15/06:20pm 6.2 -1.1 2.4 76 1.6 WNW 30 35 16 19 - - 0.0
15/06:10pm 6.2 -1.7 2.4 76 1.6 W 33 41 18 22 - - 0.0
15/06:00pm 6.3 -1.4 2.4 76 1.7 WNW 32 37 17 20 - - 0.0
15/05:50pm 6.4 -1.3 2.3 75 1.8 WNW 32 39 17 21 - - 0.0
15/05:40pm 6.4 -1.3 2.4 75 1.7 WNW 32 43 17 23 - - 0.0
15/05:30pm 6.6 -1.7 2.1 73 1.9 WNW 35 44 19 24 - - 0.0
15/05:20pm 6.7 -1.6 2.1 72 2.0 WNW 35 41 19 22 - - 0.0
15/05:00pm 6.9 -0.9 1.9 70 2.1 WNW 32 37 17 20 - - 0.0
15/04:50pm 6.9 -0.5 2.1 71 2.1 WNW 30 37 16 20 - - 0.0
15/04:40pm 7.2 0.2 1.9 69 2.3 WNW 28 33 15 18 - - 0.0
15/04:30pm 7.4 0.4 1.7 67 2.4 WNW 28 35 15 19 - - 0.0
15/04:20pm 7.3 -1.0 2.0 69 2.3 WNW 35 41 19 22 - - 0.0
15/04:10pm 7.4 -1.0 1.6 66 2.5 WNW 35 43 19 23 - - 0.0
15/04:00pm 7.5 0.1 2.1 68 2.3 WNW 30 44 16 24 - - 0.0
15/03:50pm 7.5 -0.2 2.1 68 2.3 WNW 32 41 17 22 - - 0.0
15/03:40pm 7.5 -0.5 1.9 67 2.4 WNW 33 41 18 22 - - 0.0
15/03:30pm 7.7 -0.2 2.3 68 2.3 WNW 33 37 18 20 - - 0.0
15/03:20pm 7.9 -0.5 1.7 65 2.7 W 35 43 19 23 - - 0.0
15/03:10pm 7.9 -0.4 1.9 66 2.6 W 35 39 19 21 - - 0.0
15/03:00pm 8.1 0.1 1.5 63 2.8 W 33 39 18 21 - - 0.0
15/02:50pm 7.8 -1.8 1.4 64 2.7 W 41 44 22 24 - - 0.0
15/02:40pm 7.8 -3.2 0.8 61 2.9 W 48 54 26 29 - - 0.0
15/02:30pm 8.0 -3.2 1.6 64 2.7 W 50 56 27 30 - - 0.0
15/02:20pm 8.2 -3.0 1.9 64 2.7 W 50 56 27 30 - - 0.0
15/02:10pm 8.2 -2.6 1.7 63 2.8 W 48 54 26 29 - - 0.0
15/02:00pm - - - - - WNW 39 46 21 25 - - -
15/01:50pm 8.4 0.1 1.9 63 2.8 WNW 35 41 19 22 - - 0.0
15/01:40pm 8.3 -0.4 1.8 63 2.8 WNW 37 41 20 22 - - 0.0
15/01:30pm 8.1 0.2 2.3 67 2.5 WNW 33 39 18 21 - - 0.0
15/01:20pm 8.2 -0.1 2.2 66 2.6 WNW 35 39 19 21 - - 0.0
15/01:10pm 8.1 -0.9 2.4 67 2.5 WNW 39 44 21 24 - - 0.0
15/01:00pm 8.0 -0.3 2.0 66 2.6 WNW 35 41 19 22 - - 0.0
15/12:50pm 8.1 1.2 2.3 67 2.5 WNW 28 32 15 17 - - 0.0
15/12:40pm 7.8 0.1 2.4 68 2.4 WNW 32 35 17 19 - - 0.0
15/12:30pm 7.7 0.4 2.6 70 2.2 WNW 30 33 16 18 - - 0.0
15/12:20pm 7.6 -1.2 1.6 66 2.6 W 37 43 20 23 - - 0.0
15/12:10pm 7.5 1.0 2.5 70 2.2 W 26 30 14 16 - - 0.0
15/12:00pm 7.3 -0.6 2.0 69 2.3 WNW 33 37 18 20 - - 0.0
15/11:50am 7.1 -0.6 2.2 71 2.1 WNW 32 35 17 19 - - 0.0
15/11:40am 6.9 -0.7 2.7 74 1.8 WNW 32 35 17 19 - - 0.0
15/11:30am 6.9 -0.4 2.6 74 1.9 W 30 35 16 19 - - 0.0
15/11:20am 6.8 -1.1 2.3 73 1.9 WNW 33 39 18 21 - - 0.0
15/11:10am 7.2 0.5 3.7 78 1.6 WNW 28 33 15 18 - - 0.0
15/11:00am 6.6 -1.0 2.6 75 1.7 WNW 32 37 17 20 - - 0.0
15/10:50am 6.6 0.3 3.5 80 1.4 WNW 26 30 14 16 - - 0.0
15/10:40am 6.5 0.4 2.6 76 1.7 WNW 24 28 13 15 - - 0.0
15/10:30am 6.5 1.3 2.7 77 1.6 WNW 19 24 10 13 - - 0.0
15/10:20am 5.7 0.5 2.4 79 1.4 WNW 19 22 10 12 - - 0.0
15/10:10am 5.5 0.4 3.1 84 1.0 WNW 19 20 10 11 - - 0.0
15/10:00am 5.7 0.0 2.9 82 1.2 WNW 22 24 12 13 - - 0.0
15/09:50am 5.8 0.1 2.9 82 1.3 WNW 22 26 12 14 - - 0.0
15/09:40am 5.9 -0.2 2.8 80 1.3 WNW 24 26 13 14 - - 0.0
15/09:30am 5.5 -0.6 3.0 84 1.1 WNW 24 32 13 17 - - 0.0
15/09:20am 5.3 -0.8 2.7 83 1.1 WNW 24 30 13 16 - - 0.0
15/09:00am 5.4 -0.6 3.2 86 1.0 WNW 24 26 13 14 - - 2.8
15/08:50am 5.4 0.7 3.2 86 1.0 NW 17 20 9 11 - - 2.8
15/08:40am 5.3 0.6 3.2 86 0.9 WNW 17 20 9 11 - - 2.8
15/08:30am 5.3 1.3 2.7 83 1.1 NW 13 17 7 9 - - 2.8
15/08:20am 5.0 1.1 3.3 89 0.7 NW 13 19 7 10 - - 2.8
15/08:10am 4.9 -0.4 2.9 87 0.9 WNW 20 24 11 13 - - 2.8
15/08:00am 4.9 -0.4 3.1 88 0.8 NW 20 26 11 14 - - 2.8
15/07:50am 5.1 1.1 3.0 86 0.9 NNW 13 19 7 10 - - 2.8
15/07:40am 4.8 1.6 3.1 89 0.7 NW 9 15 5 8 - - 2.8
15/07:30am 4.8 0.0 2.7 86 0.9 WNW 17 20 9 11 - - 2.8
15/07:20am 4.8 -0.9 2.8 87 0.9 WNW 22 28 12 15 - - 2.8
15/07:10am 4.7 -0.6 3.2 90 0.6 NW 20 24 11 13 - - 2.8
15/07:00am 4.7 -0.4 3.2 90 0.6 NW 19 22 10 12 - - 2.8
15/06:50am 4.7 0.4 3.2 90 0.6 NW 15 26 8 14 - - 2.6
15/06:40am 4.7 0.4 3.0 89 0.7 WNW 15 22 8 12 - - 2.6
15/06:30am 4.6 1.5 3.4 92 0.5 NW 9 13 5 7 - - 2.6
15/06:20am 4.6 0.7 3.5 93 0.5 WNW 13 20 7 11 - - 2.6
15/06:10am 4.5 -0.1 3.5 93 0.4 NW 17 20 9 11 - - 2.4
15/06:00am 4.5 0.3 3.6 94 0.4 NW 15 20 8 11 - - 2.2
15/05:50am 4.5 -0.1 3.5 93 0.4 NW 17 26 9 14 - - 2.2
15/05:40am 4.6 -0.6 3.4 92 0.5 WNW 20 26 11 14 - - 2.2
15/05:30am 4.7 -2.8 3.4 91 0.6 WNW 32 39 17 21 - - 2.2
15/05:20am 4.6 -2.9 3.4 92 0.5 WNW 32 43 17 23 - - 2.0
15/05:10am 4.5 -2.2 3.6 94 0.4 WNW 28 37 15 20 - - 2.0
15/05:00am 4.7 -2.4 3.5 92 0.5 WNW 30 37 16 20 - - 2.0
15/04:50am 4.8 -2.9 3.3 90 0.7 WNW 33 43 18 23 - - 2.0
15/04:40am 5.0 -3.1 3.3 89 0.7 WNW 35 43 19 23 - - 1.8
15/04:30am 5.0 -4.3 3.1 87 0.8 WNW 41 48 22 26 - - 1.8
15/04:20am 5.1 -5.9 2.9 86 0.9 WNW 50 69 27 37 - - 1.6
15/04:10am 5.0 -5.2 3.1 87 0.8 WNW 46 54 25 29 - - 1.6
15/04:00am 5.2 -8.7 2.7 84 1.1 WNW 65 70 35 38 - - 1.6
15/03:50am - - - - - WNW 63 74 34 40 - - -
15/03:40am 5.2 -9.4 2.8 84 1.0 W 69 76 37 41 - - 1.6
15/03:30am 5.3 -9.6 2.5 82 1.2 W 70 78 38 42 - - 1.6
15/03:20am 5.3 -9.9 2.9 84 1.0 W 72 85 39 46 - - 1.6
15/03:10am 5.3 -10.0 2.5 82 1.2 W 72 91 39 49 - - 1.6
15/03:00am 5.3 -8.6 2.8 84 1.1 W 65 76 35 41 - - 1.6
15/02:50am 5.4 -9.4 2.9 84 1.1 W 70 89 38 48 - - 1.6
15/02:40am 5.4 -10.2 2.9 84 1.1 W 74 80 40 43 - - 1.6
15/02:30am 5.5 -10.5 2.7 82 1.2 W 76 89 41 48 - - 1.6
15/02:20am 5.4 -8.8 3.0 84 1.0 W 67 76 36 41 - - 1.6
15/02:10am 5.4 -10.2 2.9 84 1.1 W 74 85 40 46 - - 1.6
15/02:00am 5.4 -9.3 2.7 83 1.2 W 69 82 37 44 - - 1.6
15/01:50am 5.5 -11.2 3.0 84 1.1 W 80 93 43 50 - - 1.6
15/01:40am 5.5 -10.0 5.5 100 0.0 W 76 89 41 48 - - 1.6
15/01:30am 5.5 -8.2 5.5 100 0.0 W 67 82 36 44 - - 1.6
15/01:20am - - - - - WNW 70 76 38 41 - - -
15/01:10am 5.7 -10.6 3.0 83 1.2 WNW 78 87 42 47 - - 1.6
15/01:00am 5.8 -9.8 3.0 82 1.2 WNW 74 93 40 50 - - 1.6
15/12:50am 5.8 -11.5 1.7 75 1.7 WNW 82 93 44 50 - - 1.6
15/12:40am 5.9 -8.7 3.2 83 1.2 WNW 69 89 37 48 - - 1.6
15/12:30am 5.9 -9.2 3.5 84 1.1 WNW 72 91 39 49 - - 1.6
15/12:20am 6.2 -9.9 6.2 100 0.0 WNW 80 93 43 50 - - 1.6
15/12:00am - - - - - W 70 83 38 45 - - -
 
Date/Time
EST
Temp
°C
App
Temp
°C
Dew
Point
°C
Rel
Hum
%
Delta-T
°C
Wind Press
QNH
hPa
Press
MSL
hPa
Rain since
9am
mm
Dir  Spd
km/h
Gust
km/h
Spd
kts
Gust
kts
14/11:50pm 6.3 -9.3 3.0 79 1.4 WNW 74 89 40 48 - - 1.6
14/11:40pm - - - - - WNW 70 91 38 49 - - -
14/11:30pm 6.1 -9.8 3.2 82 1.3 WNW 76 89 41 48 - - 1.6
14/11:20pm 6.0 -7.7 3.7 85 1.0 WNW 65 74 35 40 - - 1.6
14/11:10pm 5.9 -8.2 3.9 87 0.9 WNW 67 76 36 41 - - 1.6
14/11:00pm 5.8 -7.9 3.9 88 0.8 WNW 65 70 35 38 - - 1.6
14/10:50pm 5.8 -8.5 5.8 100 0.0 WNW 70 85 38 46 - - 1.6
14/10:40pm 5.7 -10.1 3.8 87 0.8 WNW 76 87 41 47 - - 1.6
14/10:30pm 5.7 -10.8 4.0 89 0.8 WNW 80 91 43 49 - - 1.6
14/10:20pm - - - - - WNW 85 98 46 53 - - -
14/10:10pm 5.6 -12.9 -23.7 10 6.9 WNW 78 98 42 53 - - 1.4
14/10:00pm 5.6 -11.3 -7.2 39 4.3 WNW 74 82 40 44 - - 1.4
14/09:50pm 5.7 -11.3 4.2 90 0.7 WNW 83 96 45 52 - - 1.2
14/09:40pm 5.9 -15.2 -27.9 7 7.3 W 91 98 49 53 - - 1.2
14/09:30pm 5.8 -13.4 -16.0 19 6.3 WNW 83 95 45 51 - - 1.2
14/09:20pm 5.7 -11.8 4.0 89 0.8 WNW 85 98 46 53 - - 1.0
14/09:10pm 5.6 -9.4 4.1 90 0.7 WNW 72 82 39 44 - - 1.0
14/09:00pm 5.6 -8.4 4.0 89 0.7 WNW 67 80 36 43 - - 1.0
14/08:50pm 5.6 -9.0 4.0 89 0.7 WNW 70 85 38 46 - - 1.0
14/08:40pm 5.7 -8.9 0.5 69 2.1 WNW 67 76 36 41 - - 1.0
14/08:30pm 5.7 -9.8 3.6 86 0.9 WNW 74 87 40 47 - - 0.8
14/08:20pm 5.6 -10.2 3.7 87 0.8 WNW 76 91 41 49 - - 0.8
14/08:10pm 5.3 -9.5 -19.1 15 6.4 WNW 59 70 32 38 - - 0.8
14/08:00pm 5.3 -8.0 4.1 92 0.5 WNW 63 70 34 38 - - 0.8
14/07:50pm - - - - - WNW 70 78 38 42 - - -
14/07:40pm 5.3 -10.5 3.6 89 0.7 WNW 76 96 41 52 - - 0.8
14/07:30pm 5.0 -11.5 3.9 93 0.5 WNW 80 91 43 49 - - 0.8
14/07:20pm 4.9 -11.3 3.9 93 0.4 WNW 78 83 42 45 - - 0.6
14/07:10pm - - - - - WNW 74 83 40 45 - - -
14/07:00pm 4.7 -10.4 3.7 93 0.4 WNW 72 82 39 44 - - 0.6
14/06:50pm 4.9 -12.4 -22.5 12 6.6 WNW 72 78 39 42 - - 0.6
14/06:40pm 4.5 -9.2 3.6 94 0.4 WNW 65 80 35 43 - - 0.6
14/06:30pm 4.4 -9.7 3.5 94 0.4 WNW 67 80 36 43 - - 0.4
14/06:20pm 4.5 -9.4 4.5 100 0.0 WNW 67 76 36 41 - - 0.4
14/06:10pm 4.6 -9.6 3.1 90 0.6 WNW 67 82 36 44 - - 0.4
14/06:00pm 4.4 -9.2 4.4 100 0.0 WNW 65 76 35 41 - - 0.4
14/05:50pm 4.4 -8.7 3.0 91 0.6 WNW 61 74 33 40 - - 0.4
14/05:40pm - - - - - WNW 63 74 34 40 - - -
14/05:30pm - - - - - WNW 63 78 34 42 - - -
14/05:20pm - - - - - WNW 50 61 27 33 - - -
14/05:10pm 3.8 -8.0 3.0 94 0.3 WNW 54 65 29 35 - - 0.2
14/05:00pm 3.9 -7.5 2.8 92 0.5 WNW 52 65 28 35 - - 0.2
14/04:50pm 3.7 -9.4 2.8 94 0.4 WNW 61 74 33 40 - - 0.2
14/04:40pm 3.8 -9.3 2.7 92 0.5 WNW 61 74 33 40 - - 0.0
14/04:30pm 3.7 -9.9 2.5 92 0.5 WNW 63 72 34 39 - - 0.0
14/04:20pm 3.7 -10.6 2.4 91 0.5 WNW 67 74 36 40 - - 0.0
14/04:10pm 3.6 -10.4 2.3 91 0.5 WNW 65 74 35 40 - - 0.0
14/04:00pm 3.6 -10.7 -18.2 18 5.6 WNW 57 70 31 38 - - 0.0
14/03:50pm 3.6 -10.4 2.0 89 0.7 WNW 65 76 35 41 - - 0.0
14/03:40pm 3.4 -8.9 2.3 92 0.5 WNW 56 63 30 34 - - 0.0
14/03:30pm 3.5 -9.4 1.9 89 0.7 WNW 59 74 32 40 - - 0.0
14/03:20pm 3.5 -9.8 1.6 87 0.8 WNW 61 74 33 40 - - 0.0
14/03:00pm 3.5 -7.8 1.5 87 0.8 WNW 50 57 27 31 - - 0.0
14/02:50pm 3.5 -8.6 1.2 85 0.9 WNW 54 59 29 32 - - 0.0
14/02:40pm 3.2 -9.8 1.4 88 0.7 WNW 59 63 32 34 - - 0.0
14/02:30pm 3.1 -9.3 1.5 89 0.7 WNW 56 63 30 34 - - 0.0
14/02:20pm 3.1 -7.9 3.1 100 0.0 WNW 50 59 27 32 - - 0.0
14/02:10pm 3.1 -9.0 0.8 85 0.9 WNW 54 65 29 35 - - 0.0
14/02:00pm 3.1 -8.7 0.6 84 1.0 WNW 52 61 28 33 - - 0.0
14/01:50pm 3.2 -8.0 -7.7 44 3.7 WNW 44 52 24 28 - - 0.0
14/01:40pm 3.3 -6.9 0.0 79 1.3 WNW 43 56 23 30 - - 0.0
14/01:30pm 3.1 -8.0 0.0 80 1.2 WNW 48 59 26 32 - - 0.0
14/01:20pm 3.0 -7.1 0.4 83 1.0 WNW 43 50 23 27 - - 0.0
14/01:10pm 2.9 -8.9 0.2 82 1.1 WNW 52 57 28 31 - - 0.0
14/01:00pm 3.0 -7.7 0.4 83 1.0 WNW 46 61 25 33 - - 0.0
14/12:50pm 3.2 -8.2 0.5 82 1.1 WNW 50 65 27 35 - - 0.0
14/12:40pm 2.9 -6.4 0.3 83 1.0 WNW 39 48 21 26 - - 0.0

Other formats

Comma delimited format used in spreadsheet applications
http://www.bom.gov.au/fwo/IDN60801/IDN60801.99763.axf

JavaScript Object Notation format (JSON) in row-major order
http://www.bom.gov.au/fwo/IDN60801/IDN60801.99763.json

Data quality

Most of these data are generated automatically and are frequently updated. Quality checks on data are not normally performed. It is possible for incorrect values to appear. Refer to information at About Latest Weather Observations and please check the disclaimer before using these data.